createdAt,value
2018-11-02T00:02:27.423Z,56.70
2018-11-02T00:29:25.554Z,56.50
2018-11-02T00:42:32.663Z,56.40
2018-11-02T01:08:42.163Z,56.30
2018-11-02T01:21:49.267Z,56.30
2018-11-02T01:34:56.452Z,56.30
2018-11-02T02:01:06.288Z,56.10
2018-11-02T02:14:13.478Z,56.10
2018-11-02T02:27:20.612Z,56.00
2018-11-02T02:40:27.772Z,56.00
2018-11-02T02:53:34.962Z,55.90
2018-11-02T03:06:42.133Z,55.90
2018-11-02T03:19:49.295Z,55.80
2018-11-02T03:32:56.458Z,55.80
2018-11-02T03:46:03.623Z,55.80
2018-11-02T03:59:10.742Z,55.80
2018-11-02T04:12:17.942Z,55.80
2018-11-02T04:25:25.116Z,55.60
2018-11-02T04:38:32.321Z,55.60
2018-11-02T04:51:39.477Z,55.60
2018-11-02T05:04:46.645Z,55.50
2018-11-02T05:17:53.818Z,55.50
2018-11-02T05:31:00.942Z,55.50
2018-11-02T05:44:08.082Z,55.50
2018-11-02T05:57:15.203Z,55.50
2018-11-02T06:23:25.193Z,49.80
2018-11-02T06:36:32.409Z,50.80
2018-11-02T06:49:39.568Z,51.60
2018-11-02T07:02:46.790Z,50.90
2018-11-02T07:15:53.921Z,51.00
2018-11-02T07:29:01.062Z,51.70
2018-11-02T07:42:08.229Z,52.70
2018-11-02T07:55:15.454Z,53.90
2018-11-02T08:08:22.693Z,54.80
2018-11-02T08:21:29.994Z,55.20
2018-11-02T08:47:39.646Z,53.50
2018-11-02T09:00:47.004Z,53.70
2018-11-02T09:13:56.903Z,54.40
2018-11-02T09:27:07.517Z,55.80
2018-11-02T09:40:14.676Z,56.60
2018-11-02T09:53:21.790Z,56.90
2018-11-02T10:06:28.983Z,56.40
2018-11-02T10:19:36.196Z,57.40
2018-11-02T10:32:43.337Z,57.80
2018-11-02T10:45:50.567Z,56.90
2018-11-02T10:58:58.174Z,57.40
2018-11-02T11:12:05.441Z,57.10
2018-11-02T11:38:15.427Z,56.60
2018-11-02T11:51:22.564Z,56.60
2018-11-02T12:04:29.728Z,56.50
2018-11-02T12:17:36.892Z,56.20
2018-11-02T12:30:44.032Z,56.70
2018-11-02T12:43:51.247Z,56.70
2018-11-02T12:56:58.342Z,56.80
2018-11-02T13:10:05.498Z,56.30
2018-11-02T13:23:12.602Z,56.10
2018-11-02T13:36:19.808Z,56.20
2018-11-02T13:49:26.946Z,56.00
2018-11-02T14:02:34.114Z,55.60
2018-11-02T14:15:41.366Z,55.60
2018-11-02T14:28:48.552Z,55.70
2018-11-02T14:41:55.704Z,55.70
2018-11-02T14:55:03.196Z,55.40
2018-11-02T15:08:10.388Z,53.90
2018-11-02T15:21:17.565Z,54.70
2018-11-02T15:47:27.361Z,55.20
2018-11-02T16:00:34.592Z,55.60
2018-11-02T16:13:41.751Z,56.40
2018-11-02T16:39:51.584Z,44.50
2018-11-02T16:52:58.750Z,48.60
2018-11-02T17:06:05.936Z,49.30
2018-11-02T17:19:13.114Z,49.90
2018-11-02T17:32:20.291Z,50.50
2018-11-02T17:45:27.481Z,51.10
2018-11-02T17:58:34.674Z,51.60
2018-11-02T18:24:44.633Z,52.20
2018-11-02T18:37:51.916Z,52.90
2018-11-02T18:50:59.241Z,53.60
2018-11-02T19:04:06.507Z,54.50
2018-11-02T19:17:13.742Z,55.00
2018-11-02T19:43:23.718Z,53.00
2018-11-02T19:56:30.957Z,52.40
2018-11-02T20:09:38.338Z,53.90
2018-11-02T20:22:45.544Z,53.70
2018-11-02T20:35:52.905Z,54.00
2018-11-02T20:49:00.275Z,54.30
2018-11-02T21:02:07.315Z,50.90
2018-11-02T21:15:15.215Z,51.80
2018-11-02T21:28:22.566Z,52.60
2018-11-02T21:41:29.697Z,53.20
2018-11-02T21:54:36.834Z,53.50
2018-11-02T22:07:44.000Z,53.60
2018-11-02T22:20:51.519Z,53.60
2018-11-02T22:33:58.691Z,53.70
2018-11-02T22:47:05.829Z,56.40
2018-11-02T23:00:12.964Z,56.40
2018-11-02T23:13:20.117Z,55.30
2018-11-02T23:26:27.188Z,53.60
2018-11-02T23:39:34.336Z,53.90
2018-11-02T23:52:41.467Z,54.10
